< < Back
Terminal Aerodrome Forecast


Current Version              Previous Versions:   1  2  3  4  5  6  7  8  9  

Terminal Aerodrome Forecast

280
FTUS42 KTAE 310814 AAB
TAFVLD
TAF AMD
KVLD 310814Z 3108/0106 00000KT 1SM BR VV007
     FM311000 00000KT 2SM BR OVC008
     FM311500 26005KT P6SM BKN040 PROB30 3119/3123 VRB15G25KT 3SM
      TSRA BKN025CB
     FM010000 26005KT P6SM BKN250=

Latest METAR

077
SAUS70 KWBC 310800 RRE
MTRVLD
METAR KVLD 310753Z AUTO 00000KT 1SM BR VV008 13/12 A3010 RMK AO2 SLP201
T01280122 TSNO


USA.gov is the U.S. government's official web portal to all federal, state and local government web resources and services.